createdAt,value
2024-05-09T00:00:41.773Z,21.40881
2024-05-09T00:05:44.196Z,17.9608
2024-05-09T00:10:46.099Z,21.39456
2024-05-09T00:15:47.536Z,19.7604
2024-05-09T00:20:48.973Z,19.25947
2024-05-09T00:25:50.515Z,18.62587
2024-05-09T00:30:51.959Z,17.14017
2024-05-09T00:35:53.436Z,16.52811
2024-05-09T00:40:54.930Z,17.19474
2024-05-09T00:45:56.306Z,18.33104
2024-05-09T00:50:57.795Z,16.71452
2024-05-09T00:55:59.319Z,18.8417
2024-05-09T01:01:00.860Z,17.03625
2024-05-09T01:06:02.338Z,22.436
2024-05-09T01:11:03.946Z,22.17859
2024-05-09T01:16:05.481Z,21.31703
2024-05-09T01:21:06.929Z,20.19458
2024-05-09T01:26:08.483Z,22.17857
2024-05-09T01:31:09.943Z,25.12994
2024-05-09T01:36:11.264Z,24.10063
2024-05-09T01:41:12.739Z,26.15495
2024-05-09T01:46:14.159Z,27.76348
2024-05-09T01:51:15.622Z,28.18421
2024-05-09T01:56:17.263Z,28.98056
2024-05-09T02:01:18.746Z,29.64066
2024-05-09T02:06:20.232Z,28.65784
2024-05-09T02:11:21.738Z,29.16882
2024-05-09T02:16:23.287Z,29.09642
2024-05-09T02:21:24.683Z,30.11076
2024-05-09T02:26:26.250Z,31.18814
2024-05-09T02:31:27.834Z,30.26288
2024-05-09T02:36:29.196Z,30.83267
2024-05-09T02:41:30.713Z,29.61216
2024-05-09T02:46:32.149Z,31.87666
2024-05-09T02:51:33.508Z,32.38384
2024-05-09T02:56:35.132Z,30.86586
2024-05-09T03:01:36.739Z,31.38017
2024-05-09T03:06:38.193Z,32.71364
2024-05-09T03:11:39.988Z,33.18631
2024-05-09T03:16:41.755Z,35.05574
2024-05-09T03:21:43.242Z,35.40412
2024-05-09T03:26:44.736Z,34.56571
2024-05-09T03:31:46.303Z,35.38218
2024-05-09T03:36:47.753Z,39.17005
2024-05-09T03:41:49.174Z,41.43377
2024-05-09T03:46:50.629Z,39.82639
2024-05-09T03:51:52.176Z,41.03477
2024-05-09T03:56:53.590Z,42.44762
2024-05-09T04:01:55.239Z,43.60598
2024-05-09T04:06:56.704Z,41.43412
2024-05-09T04:11:58.635Z,41.39809
2024-05-09T04:17:00.248Z,41.9971
2024-05-09T04:22:01.747Z,44.26839
2024-05-09T04:27:03.162Z,43.10834
2024-05-09T04:32:04.708Z,43.18341
2024-05-09T04:37:06.269Z,42.86091
2024-05-09T04:42:07.917Z,45.00225
2024-05-09T04:47:09.391Z,45.07803
2024-05-09T04:52:10.791Z,47.30787
2024-05-09T04:57:12.390Z,45.04487
2024-05-09T05:02:14.437Z,49.72263
2024-05-09T05:07:17.154Z,48.67159
2024-05-09T05:12:19.087Z,46.85154
2024-05-09T05:17:20.905Z,52.8558
2024-05-09T05:22:22.495Z,51.04279
2024-05-09T05:27:24.010Z,49.8314
2024-05-09T05:32:27.961Z,50.38153
2024-05-09T05:37:29.827Z,53.94443
2024-05-09T05:42:31.460Z,61.83949
2024-05-09T05:47:32.980Z,59.73372
2024-05-09T05:52:34.498Z,56.07666
2024-05-09T05:57:36.108Z,65.93322
2024-05-09T06:02:37.670Z,65.71334
2024-05-09T06:07:39.114Z,63.54324
2024-05-09T06:12:40.543Z,60.56573
2024-05-09T06:17:42.042Z,57.58692
2024-05-09T06:22:43.493Z,58.81972
2024-05-09T06:27:44.872Z,56.54024
2024-05-09T06:32:46.654Z,54.43411
2024-05-09T06:37:48.211Z,58.59228
2024-05-09T06:42:49.608Z,62.52239
2024-05-09T06:47:51.303Z,65.30727
2024-05-09T06:52:52.941Z,76.30443
2024-05-09T06:57:54.309Z,74.12033
2024-05-09T07:02:55.924Z,93.65348
2024-05-09T07:07:57.516Z,76.9158
2024-05-09T07:12:59.134Z,79.67191
2024-05-09T07:18:00.731Z,75.66781
2024-05-09T07:23:02.383Z,79.29557
2024-05-09T07:28:03.912Z,80.4255
2024-05-09T07:33:05.618Z,76.88396
2024-05-09T07:38:07.286Z,91.28496
2024-05-09T07:43:09.132Z,87.50883
2024-05-09T07:53:37.615Z,71.15764
2024-05-09T07:58:44.895Z,85.88525
2024-05-09T08:03:46.553Z,82.48822
2024-05-09T08:08:48.269Z,96.35178
2024-05-09T08:13:49.667Z,80.58571
2024-05-09T08:18:51.163Z,86.37501
2024-05-09T08:23:52.695Z,88.28399
2024-05-09T08:28:54.247Z,82.60275
2024-05-09T08:33:55.819Z,94.75389
2024-05-09T08:38:57.259Z,100
2024-05-09T08:43:58.657Z,100
2024-05-09T08:49:00.472Z,100
2024-05-09T08:54:02.150Z,100
2024-05-09T08:59:03.588Z,100
2024-05-09T09:04:05.213Z,95.53808
2024-05-09T09:09:06.898Z,93.95506
2024-05-09T09:14:08.348Z,91.11822
2024-05-09T09:19:09.966Z,100
2024-05-09T09:24:11.547Z,96.11002
2024-05-09T09:29:12.909Z,100
2024-05-09T09:34:14.610Z,100
2024-05-09T09:39:17.335Z,99.11091
2024-05-09T09:44:18.810Z,92.49025
2024-05-09T09:49:20.342Z,100
2024-05-09T09:54:21.803Z,100
2024-05-09T09:59:23.467Z,100
2024-05-09T10:04:24.955Z,100
2024-05-09T10:09:26.490Z,100
2024-05-09T10:14:27.871Z,100
2024-05-09T10:19:29.437Z,100
2024-05-09T10:24:31.057Z,100
2024-05-09T10:29:32.489Z,100
2024-05-09T10:34:34.104Z,100
2024-05-09T10:39:35.590Z,100
2024-05-09T10:44:37.019Z,100
2024-05-09T10:49:38.420Z,100
2024-05-09T10:54:39.969Z,100
2024-05-09T10:59:41.563Z,100
2024-05-09T11:04:43.100Z,100
2024-05-09T11:09:45.049Z,100
2024-05-09T11:14:46.804Z,100
2024-05-09T11:19:48.344Z,100
2024-05-09T11:24:49.882Z,100
2024-05-09T11:29:51.320Z,100
2024-05-09T11:34:52.862Z,100
2024-05-09T11:39:54.407Z,100
2024-05-09T11:44:55.940Z,100
2024-05-09T11:49:57.442Z,100
2024-05-09T11:54:59.225Z,100
2024-05-09T12:00:00.690Z,100
2024-05-09T12:05:02.233Z,100
2024-05-09T12:10:06.214Z,100
2024-05-09T12:15:09.592Z,100
2024-05-09T12:20:20.992Z,100
2024-05-09T12:25:27.258Z,100
2024-05-09T12:30:35.986Z,100
2024-05-09T12:35:41.730Z,100
2024-05-09T12:40:44.806Z,100
2024-05-09T12:45:46.528Z,100
2024-05-09T12:50:48.279Z,100
2024-05-09T12:55:56.671Z,100
2024-05-09T13:01:01.829Z,100
2024-05-09T13:06:03.410Z,100
2024-05-09T13:11:04.863Z,100
2024-05-09T13:16:06.493Z,100
2024-05-09T13:21:08.020Z,100
2024-05-09T13:26:09.422Z,100
2024-05-09T13:31:10.836Z,100
2024-05-09T13:36:12.282Z,100
2024-05-09T13:41:13.936Z,100
2024-05-09T13:46:15.494Z,100
2024-05-09T13:51:16.921Z,100
2024-05-09T13:56:18.285Z,100
2024-05-09T14:01:20.076Z,100
2024-05-09T14:06:21.522Z,95.63844
2024-05-09T14:11:22.998Z,95.60805
2024-05-09T14:16:24.674Z,90.99724
2024-05-09T14:21:26.123Z,82.9406
2024-05-09T14:26:27.583Z,82.41111
2024-05-09T14:31:29.150Z,80.06339
2024-05-09T14:36:30.759Z,85.04245
2024-05-09T14:41:32.201Z,75.19022
2024-05-09T14:46:33.618Z,69.93798
2024-05-09T14:51:35.255Z,73.76692
2024-05-09T14:56:36.730Z,72.02257
2024-05-09T15:01:38.304Z,66.19821
2024-05-09T15:06:39.875Z,63.34655
2024-05-09T15:11:41.584Z,64.01137
2024-05-09T15:16:43.015Z,63.35326
2024-05-09T15:21:44.539Z,60.67964
2024-05-09T15:26:46.053Z,54.77397
2024-05-09T15:31:47.530Z,51.78011
2024-05-09T15:36:49.020Z,47.38576
2024-05-09T15:41:50.723Z,45.05548
2024-05-09T15:46:52.308Z,45.1763
2024-05-09T15:51:58.978Z,43.71637
2024-05-09T15:57:00.477Z,43.59916
2024-05-09T16:02:01.994Z,41.79319
2024-05-09T16:07:03.606Z,42.84136
2024-05-09T16:12:05.431Z,40.78247
2024-05-09T16:17:07.941Z,38.71459
2024-05-09T16:22:09.618Z,35.11063
2024-05-09T16:27:11.060Z,35.61439
2024-05-09T16:32:12.501Z,35.66138
2024-05-09T16:37:14.699Z,35.0272
2024-05-09T16:42:16.120Z,31.65382
2024-05-09T16:47:17.493Z,31.17288
2024-05-09T16:52:19.036Z,31.93034
2024-05-09T16:57:20.531Z,31.88575
2024-05-09T17:02:22.128Z,30.95763
2024-05-09T17:07:23.822Z,30.13377
2024-05-09T17:12:25.342Z,29.00347
2024-05-09T17:17:27.121Z,29.27801
2024-05-09T17:22:28.715Z,29.3536
2024-05-09T17:27:30.283Z,29.25257
2024-05-09T17:32:31.849Z,27.55151
2024-05-09T17:37:33.325Z,28.25169
2024-05-09T17:42:34.846Z,31.37308
2024-05-09T17:47:36.471Z,28.48724
2024-05-09T17:52:38.215Z,27.41321
2024-05-09T17:57:39.688Z,27.91182
2024-05-09T18:02:41.867Z,30.19542
2024-05-09T18:07:43.451Z,27.95854
2024-05-09T18:12:45.215Z,26.67879
2024-05-09T18:17:47.144Z,26.24928
2024-05-09T18:22:48.800Z,26.23294
2024-05-09T18:27:50.540Z,27.37608
2024-05-09T18:32:52.095Z,26.22826
2024-05-09T18:37:53.633Z,24.62775
2024-05-09T18:42:55.211Z,27.34893
2024-05-09T18:47:56.886Z,25.84783
2024-05-09T18:52:59.229Z,23.8805
2024-05-09T18:58:01.124Z,22.99699
2024-05-09T19:03:02.993Z,25.24135
2024-05-09T19:08:04.540Z,25.78928
2024-05-09T19:13:10.402Z,25.15616
2024-05-09T19:18:15.423Z,25.39956
2024-05-09T19:23:17.086Z,25.59714
2024-05-09T19:28:18.760Z,26.07426
2024-05-09T19:33:20.491Z,24.04789
2024-05-09T19:38:21.985Z,24.91628
2024-05-09T19:43:23.374Z,24.49427
2024-05-09T19:48:24.912Z,23.10964
2024-05-09T19:53:26.540Z,23.54978
2024-05-09T19:58:28.019Z,23.87944
2024-05-09T20:03:29.629Z,23.6636
2024-05-09T20:08:31.087Z,21.59632
2024-05-09T20:13:32.690Z,22.0467
2024-05-09T20:18:34.221Z,23.43708
2024-05-09T20:23:35.753Z,21.42278
2024-05-09T20:28:37.343Z,21.32618
2024-05-09T20:33:38.980Z,20.7131
2024-05-09T20:38:40.467Z,21.68033
2024-05-09T20:43:41.876Z,20.17792
2024-05-09T20:48:43.392Z,19.86536
2024-05-09T20:53:45.054Z,22.31105
2024-05-09T20:58:46.482Z,19.04704
2024-05-09T21:03:48.015Z,19.38159
2024-05-09T21:08:49.706Z,18.63523
2024-05-09T21:13:51.076Z,19.27593
2024-05-09T21:18:52.511Z,16.63956
2024-05-09T21:23:53.840Z,16.82334
2024-05-09T21:28:55.297Z,18.59096
2024-05-09T21:33:56.984Z,18.45965
2024-05-09T21:38:58.563Z,20.23043
2024-05-09T21:44:00.081Z,18.42003
2024-05-09T21:49:01.860Z,20.0689
2024-05-09T21:54:03.239Z,17.57811
2024-05-09T21:59:04.765Z,20.50854
2024-05-09T22:04:06.505Z,16.3156
2024-05-09T22:09:07.984Z,18.2142
2024-05-09T22:14:09.439Z,21.04688
2024-05-09T22:19:10.955Z,20.34899
2024-05-09T22:24:12.491Z,16.67246
2024-05-09T22:29:13.960Z,17.2081
2024-05-09T22:34:15.696Z,20.00505
2024-05-09T22:39:17.158Z,19.3581
2024-05-09T22:44:18.948Z,17.70972
2024-05-09T22:49:20.559Z,16.76856
2024-05-09T22:54:21.989Z,17.93596
2024-05-09T22:59:23.457Z,17.53487
2024-05-09T23:04:24.993Z,18.56065
2024-05-09T23:09:26.496Z,18.21695
2024-05-09T23:14:28.179Z,18.41368
2024-05-09T23:19:29.746Z,18.37989
2024-05-09T23:24:31.193Z,17.68718
2024-05-09T23:29:32.701Z,17.44555
2024-05-09T23:34:34.180Z,16.97363
2024-05-09T23:39:35.906Z,18.4472
2024-05-09T23:44:37.386Z,19.32624
2024-05-09T23:49:39.176Z,18.22089
2024-05-09T23:54:40.746Z,18.92309
2024-05-09T23:59:42.196Z,19.40673
